createdAt,value
2023-02-09T05:00:24.532Z,9.10
2023-02-09T05:11:29.395Z,9.30
2023-02-09T05:22:29.276Z,8.50
2023-02-09T05:33:29.152Z,8.80
2023-02-09T05:44:29.081Z,7.90
2023-02-09T05:55:28.899Z,9.40
2023-02-09T06:06:28.773Z,6.50
2023-02-09T06:17:28.660Z,8.10
2023-02-09T06:28:28.616Z,8.50
2023-02-09T06:39:28.417Z,7.70
2023-02-09T06:50:28.301Z,8.80
2023-02-09T07:01:28.268Z,8.00
2023-02-09T07:12:28.067Z,8.50
2023-02-09T07:23:27.942Z,7.90
2023-02-09T07:34:27.814Z,6.50
2023-02-09T07:45:27.698Z,6.80
2023-02-09T07:56:27.571Z,8.20
2023-02-09T08:07:28.441Z,7.50
2023-02-09T08:18:27.313Z,9.80
2023-02-09T08:29:28.196Z,7.90
2023-02-09T08:40:27.084Z,9.20
2023-02-09T08:51:26.951Z,8.50
2023-02-09T09:02:26.832Z,9.50
2023-02-09T09:13:26.744Z,9.40
2023-02-09T09:24:26.589Z,9.60
2023-02-09T09:35:26.475Z,10.30
2023-02-09T09:46:26.449Z,12.70
2023-02-09T09:57:26.231Z,12.40
2023-02-09T10:08:26.093Z,12.10
2023-02-09T10:19:25.985Z,13.50
2023-02-09T10:30:25.847Z,12.70
2023-02-09T10:41:25.715Z,13.20
2023-02-09T10:52:25.598Z,13.70
2023-02-09T11:03:25.539Z,12.90
2023-02-09T11:14:25.348Z,13.60
2023-02-09T11:25:25.218Z,15.00
2023-02-09T11:36:25.092Z,14.40
2023-02-09T11:47:24.973Z,17.00
2023-02-09T11:58:24.870Z,13.90
2023-02-09T12:09:24.744Z,15.60
2023-02-09T12:20:24.600Z,16.40
2023-02-09T12:31:24.647Z,17.90
2023-02-09T12:42:24.345Z,16.50
2023-02-09T12:53:24.227Z,15.60
2023-02-09T13:04:24.113Z,17.10
2023-02-09T13:15:23.983Z,16.90
2023-02-09T13:26:23.850Z,14.90
2023-02-09T13:37:24.747Z,15.00
2023-02-09T13:48:23.602Z,16.40
2023-02-09T13:59:23.478Z,15.30
2023-02-09T14:10:23.357Z,17.00
2023-02-09T14:21:23.277Z,13.50
2023-02-09T14:32:32.689Z,15.90
2023-02-09T14:43:22.975Z,14.90
2023-02-09T14:54:22.856Z,13.80
2023-02-09T15:05:22.757Z,14.10
2023-02-09T15:16:22.638Z,16.30
2023-02-09T15:27:22.503Z,15.90
2023-02-09T15:38:22.370Z,14.80
2023-02-09T15:49:22.228Z,12.30
2023-02-09T16:00:22.106Z,13.60
2023-02-09T16:11:22.011Z,15.40
2023-02-09T16:22:21.857Z,13.60
2023-02-09T16:33:21.748Z,13.30
2023-02-09T16:44:21.637Z,15.30
2023-02-09T16:55:21.547Z,14.80
2023-02-09T17:06:21.368Z,13.40
2023-02-09T17:17:21.244Z,12.80
2023-02-09T17:28:21.192Z,12.80
2023-02-09T17:39:20.996Z,13.70
2023-02-09T17:50:20.882Z,13.40
2023-02-09T18:01:20.800Z,11.60
2023-02-09T18:12:20.653Z,14.40
2023-02-09T18:23:20.498Z,15.90
2023-02-09T18:34:20.380Z,11.20
2023-02-09T18:45:20.269Z,15.30
2023-02-09T18:56:20.129Z,15.10
2023-02-09T19:07:20.035Z,15.90
2023-02-09T19:18:19.894Z,13.80
2023-02-09T19:29:19.763Z,13.10
2023-02-09T19:40:19.636Z,16.10
2023-02-09T19:51:19.528Z,16.50
2023-02-09T20:02:19.401Z,14.90
2023-02-09T20:13:19.284Z,16.90
2023-02-09T20:24:19.160Z,17.40
2023-02-09T20:35:19.031Z,14.60
2023-02-09T20:46:18.906Z,15.80
2023-02-09T20:57:18.784Z,16.10
2023-02-09T21:08:18.685Z,13.90
2023-02-09T21:19:18.552Z,14.50
2023-02-09T21:30:18.421Z,15.70
2023-02-09T21:41:18.309Z,16.10
2023-02-09T21:52:18.214Z,15.40
